createdAt,value
2022-10-18T00:00:51.118Z,31.00
2022-10-18T00:03:36.466Z,34.50
2022-10-18T00:06:04.778Z,38.00
2022-10-18T00:08:32.745Z,41.00
2022-10-18T00:11:00.460Z,40.00
2022-10-18T00:13:28.477Z,36.00
2022-10-18T00:15:57.878Z,40.00
2022-10-18T00:18:26.260Z,36.00
2022-10-18T00:21:01.914Z,41.00
2022-10-18T00:23:30.457Z,38.00
2022-10-18T00:25:59.178Z,35.00
2022-10-18T00:28:26.905Z,37.33
2022-10-18T00:30:54.812Z,37.00
2022-10-18T00:33:22.844Z,38.00
2022-10-18T00:35:50.488Z,37.00
2022-10-18T00:38:18.408Z,37.00
2022-10-18T00:40:46.164Z,38.00
2022-10-18T00:43:16.417Z,36.50
2022-10-18T00:45:44.366Z,35.00
2022-10-18T00:48:13.938Z,34.00
2022-10-18T00:50:42.957Z,35.00
2022-10-18T00:53:13.384Z,34.00
2022-10-18T00:55:41.262Z,36.50
2022-10-18T00:58:09.938Z,37.00
2022-10-18T01:00:40.978Z,36.00
2022-10-18T01:03:09.159Z,37.00
2022-10-18T01:05:39.075Z,33.67
2022-10-18T01:08:28.658Z,37.33
2022-10-18T01:11:05.627Z,34.50
2022-10-18T01:13:33.402Z,31.50
2022-10-18T01:16:19.593Z,38.50
2022-10-18T01:18:58.602Z,34.00
2022-10-18T01:21:32.935Z,37.00
2022-10-18T01:24:00.621Z,38.00
2022-10-18T01:26:37.282Z,34.00
2022-10-18T01:31:34.954Z,32.00
2022-10-18T01:34:05.378Z,38.67
2022-10-18T01:36:35.390Z,32.33
2022-10-18T01:39:06.971Z,38.00
2022-10-18T01:41:36.253Z,37.00
2022-10-18T01:44:06.775Z,31.50
2022-10-18T01:46:35.363Z,35.50
2022-10-18T01:49:04.711Z,37.00
2022-10-18T01:51:33.448Z,37.00
2022-10-18T01:54:01.324Z,37.00
2022-10-18T01:56:35.435Z,36.00
2022-10-18T01:59:09.854Z,32.33
2022-10-18T02:01:53.695Z,32.50
2022-10-18T02:04:24.738Z,31.00
2022-10-18T02:06:57.827Z,35.00
2022-10-18T02:09:33.373Z,35.00
2022-10-18T02:12:02.223Z,31.00
2022-10-18T02:14:30.944Z,35.00
2022-10-18T02:17:00.968Z,34.00
2022-10-18T02:19:31.504Z,33.00
2022-10-18T02:22:00.402Z,31.00
2022-10-18T02:24:36.748Z,33.00
2022-10-18T02:27:05.236Z,29.00
2022-10-18T02:29:33.608Z,31.00
2022-10-18T02:32:06.294Z,36.00
2022-10-18T02:34:38.258Z,38.00
2022-10-18T02:37:06.125Z,30.00
2022-10-18T02:39:37.779Z,33.33
2022-10-18T02:42:07.033Z,35.00
2022-10-18T02:44:35.849Z,32.00
2022-10-18T02:47:04.949Z,31.00
2022-10-18T02:49:32.836Z,34.00
2022-10-18T02:52:00.780Z,31.50
2022-10-18T02:54:28.969Z,25.00
2022-10-18T02:56:56.847Z,33.00
2022-10-18T02:59:24.612Z,34.00
2022-10-18T03:01:52.403Z,35.00
2022-10-18T03:04:20.292Z,34.50
2022-10-18T03:06:48.205Z,32.00
2022-10-18T03:09:15.967Z,34.50
2022-10-18T03:11:43.848Z,36.00
2022-10-18T03:14:11.914Z,28.50
2022-10-18T03:16:40.086Z,34.00
2022-10-18T03:19:08.066Z,27.50
2022-10-18T03:21:35.919Z,35.00
2022-10-18T03:24:04.125Z,36.00
2022-10-18T03:26:32.162Z,30.00
2022-10-18T03:29:00.142Z,29.50
2022-10-18T03:31:28.264Z,34.00
2022-10-18T03:33:56.176Z,36.00
2022-10-18T03:36:23.940Z,32.00
2022-10-18T03:38:51.565Z,30.50
2022-10-18T03:41:20.900Z,36.00
2022-10-18T03:43:48.729Z,34.00
2022-10-18T03:46:16.854Z,30.00
2022-10-18T03:48:44.700Z,37.00
2022-10-18T03:51:12.627Z,30.00
2022-10-18T03:53:40.650Z,30.00
2022-10-18T03:56:08.510Z,34.00
2022-10-18T03:58:36.383Z,37.33
2022-10-18T04:01:04.465Z,31.50
2022-10-18T04:03:32.314Z,36.50
2022-10-18T04:06:00.943Z,30.00
2022-10-18T04:08:29.182Z,32.50
2022-10-18T04:10:57.049Z,28.00
2022-10-18T04:13:25.041Z,31.50
2022-10-18T04:15:52.980Z,35.00
2022-10-18T04:18:20.957Z,31.00
2022-10-18T04:20:49.020Z,33.00
2022-10-18T04:23:16.999Z,30.00
2022-10-18T04:25:44.667Z,30.00
2022-10-18T04:28:12.277Z,28.67
2022-10-18T04:30:40.198Z,30.00
2022-10-18T04:33:07.972Z,29.00
2022-10-18T04:35:35.825Z,29.00
2022-10-18T04:38:03.684Z,36.00
2022-10-18T04:40:31.543Z,31.00
2022-10-18T04:42:59.318Z,29.50
2022-10-18T04:45:27.181Z,32.00
2022-10-18T04:47:54.834Z,42.00
2022-10-18T04:50:22.468Z,37.00
2022-10-18T04:55:23.696Z,38.00
2022-10-18T04:57:52.659Z,33.00
2022-10-18T05:00:20.937Z,37.67
2022-10-18T05:02:48.692Z,33.00
2022-10-18T05:05:16.418Z,36.50
2022-10-18T05:07:44.150Z,38.00
2022-10-18T05:10:11.784Z,34.00
2022-10-18T05:12:39.512Z,37.00
2022-10-18T05:15:08.215Z,38.50
2022-10-18T05:17:36.222Z,35.67
2022-10-18T05:20:04.785Z,40.00
2022-10-18T05:22:32.989Z,41.00
2022-10-18T05:25:00.954Z,34.50
2022-10-18T05:27:29.546Z,31.00
2022-10-18T05:29:59.974Z,29.00
2022-10-18T05:32:31.210Z,31.00
2022-10-18T05:34:59.885Z,32.00
2022-10-18T05:37:28.502Z,33.00
2022-10-18T05:39:56.430Z,38.00
2022-10-18T05:42:24.170Z,33.00
2022-10-18T05:44:52.165Z,36.00
2022-10-18T05:47:20.026Z,32.67
2022-10-18T05:49:47.898Z,32.50
2022-10-18T05:52:15.756Z,37.33
2022-10-18T05:54:43.638Z,39.00
2022-10-18T05:57:11.493Z,36.00
2022-10-18T05:59:39.466Z,36.00
2022-10-18T06:02:07.284Z,37.00
2022-10-18T06:04:35.323Z,30.00
2022-10-18T06:07:03.401Z,38.00
2022-10-18T06:09:31.246Z,35.50
2022-10-18T06:11:59.211Z,39.50
2022-10-18T06:14:26.978Z,39.00
2022-10-18T06:16:56.895Z,37.33
2022-10-18T06:19:24.869Z,38.50
2022-10-18T06:21:53.130Z,34.00
2022-10-18T06:24:21.925Z,35.50
2022-10-18T06:26:50.084Z,36.00
2022-10-18T06:29:17.787Z,35.00
2022-10-18T06:31:45.732Z,37.00
2022-10-18T06:34:13.392Z,38.00
2022-10-18T06:36:42.174Z,34.50
2022-10-18T06:39:10.542Z,36.00
2022-10-18T06:41:38.416Z,37.00
2022-10-18T06:44:19.810Z,31.50
2022-10-18T06:46:49.001Z,39.00
2022-10-18T06:49:19.089Z,36.00
2022-10-18T06:51:47.298Z,39.00
2022-10-18T06:54:19.130Z,42.33
2022-10-18T06:56:47.242Z,40.50
2022-10-18T06:59:15.489Z,45.50
2022-10-18T07:01:44.069Z,40.33
2022-10-18T07:04:12.176Z,38.00
2022-10-18T07:06:40.131Z,43.00
2022-10-18T07:09:08.570Z,45.50
2022-10-18T07:11:39.971Z,47.00
2022-10-18T07:14:08.855Z,46.00
2022-10-18T07:16:38.600Z,46.00
2022-10-18T07:19:06.865Z,44.33
2022-10-18T07:21:35.129Z,42.00
2022-10-18T07:24:04.109Z,43.00
2022-10-18T07:26:33.517Z,51.00
2022-10-18T07:29:09.697Z,50.33
2022-10-18T07:31:38.852Z,45.00
2022-10-18T07:34:08.071Z,45.00
2022-10-18T07:36:36.143Z,44.00
2022-10-18T07:39:04.224Z,45.00
2022-10-18T07:41:34.080Z,46.00
2022-10-18T07:44:03.269Z,43.00
2022-10-18T07:46:31.510Z,44.00
2022-10-18T07:48:59.786Z,45.00
2022-10-18T07:51:28.181Z,45.00
2022-10-18T07:53:56.136Z,43.00
2022-10-18T07:56:24.411Z,45.00
2022-10-18T07:58:53.605Z,42.00
2022-10-18T08:01:22.752Z,40.00
2022-10-18T08:03:51.396Z,41.67
2022-10-18T08:06:20.786Z,42.00
2022-10-18T08:08:49.067Z,43.00
2022-10-18T08:11:18.260Z,41.67
2022-10-18T08:13:46.653Z,45.50
2022-10-18T08:16:16.660Z,47.00
2022-10-18T08:18:44.936Z,48.00
2022-10-18T08:21:14.254Z,43.50
2022-10-18T08:23:42.924Z,45.00
2022-10-18T08:26:13.119Z,46.67
2022-10-18T08:28:46.051Z,43.00
2022-10-18T08:31:22.043Z,42.50
2022-10-18T08:33:50.062Z,37.00
2022-10-18T08:36:18.030Z,40.00
2022-10-18T08:38:46.600Z,38.50
2022-10-18T08:41:23.856Z,44.00
2022-10-18T08:44:07.396Z,42.50
2022-10-18T08:46:37.540Z,42.00
2022-10-18T08:49:06.962Z,40.00
2022-10-18T08:51:43.949Z,39.00
2022-10-18T08:54:12.028Z,42.67
2022-10-18T08:56:42.024Z,38.00
2022-10-18T08:59:11.427Z,39.00
2022-10-18T09:01:39.409Z,40.67
2022-10-18T09:04:10.847Z,41.00
2022-10-18T09:06:43.736Z,39.00
2022-10-18T09:09:11.607Z,41.50
2022-10-18T09:12:03.023Z,46.00
2022-10-18T09:14:49.420Z,42.00
2022-10-18T09:17:20.362Z,39.00
2022-10-18T09:19:55.902Z,39.00
2022-10-18T09:22:39.337Z,39.00
2022-10-18T09:25:21.953Z,36.00
2022-10-18T09:27:53.110Z,35.00
2022-10-18T09:30:20.961Z,38.00
2022-10-18T09:32:57.128Z,36.00
2022-10-18T09:35:28.533Z,36.00
2022-10-18T09:38:02.601Z,36.00
2022-10-18T09:40:33.948Z,34.00
2022-10-18T09:43:05.623Z,35.00
2022-10-18T09:45:39.789Z,33.50
2022-10-18T09:48:13.717Z,33.00
2022-10-18T09:50:45.169Z,34.00
2022-10-18T09:53:18.466Z,37.00
2022-10-18T09:55:55.652Z,34.00
2022-10-18T09:58:24.567Z,31.50
2022-10-18T10:00:53.215Z,31.50
2022-10-18T10:03:21.086Z,32.00
2022-10-18T10:06:01.552Z,33.00
2022-10-18T10:08:34.188Z,29.00
2022-10-18T10:11:02.098Z,31.00
2022-10-18T10:13:30.064Z,28.00
2022-10-18T10:16:02.233Z,30.00
2022-10-18T10:18:32.202Z,26.00
2022-10-18T10:21:01.982Z,28.00
2022-10-18T10:23:32.901Z,28.00
2022-10-18T10:26:20.937Z,25.00
2022-10-18T10:28:49.380Z,27.00
2022-10-18T10:31:19.335Z,30.00
2022-10-18T10:33:47.728Z,30.00
2022-10-18T10:36:19.780Z,30.00
2022-10-18T10:39:02.303Z,30.33
2022-10-18T10:41:33.755Z,27.00
2022-10-18T10:44:02.938Z,27.00
2022-10-18T10:46:35.117Z,27.00
2022-10-18T10:49:35.002Z,28.00
2022-10-18T10:52:08.902Z,26.50
2022-10-18T10:54:50.380Z,26.50
2022-10-18T10:57:23.015Z,25.00
2022-10-18T10:59:52.819Z,28.00
2022-10-18T11:02:23.423Z,23.00
2022-10-18T11:04:52.581Z,23.50
2022-10-18T11:07:20.534Z,23.50
2022-10-18T11:09:53.455Z,26.00
2022-10-18T11:12:25.291Z,24.00
2022-10-18T11:14:59.843Z,25.00
2022-10-18T11:17:48.145Z,25.00
2022-10-18T11:20:28.901Z,24.50
2022-10-18T11:22:56.656Z,28.00
2022-10-18T11:25:28.663Z,22.50
2022-10-18T11:28:04.579Z,24.00
2022-10-18T11:30:32.544Z,19.50
2022-10-18T11:33:06.811Z,23.50
2022-10-18T11:35:50.088Z,20.00
2022-10-18T11:38:33.111Z,21.00
2022-10-18T11:41:26.476Z,23.00
2022-10-18T11:44:03.977Z,25.50
2022-10-18T11:46:38.289Z,19.50
2022-10-18T11:49:28.377Z,22.00
2022-10-18T11:52:08.954Z,16.50
2022-10-18T11:54:38.243Z,25.00
2022-10-18T11:57:09.179Z,21.50
2022-10-18T11:59:52.312Z,19.50
2022-10-18T12:02:20.332Z,22.00
2022-10-18T12:05:05.918Z,20.50
2022-10-18T12:07:44.071Z,14.00
2022-10-18T12:10:26.152Z,11.00
2022-10-18T12:13:07.550Z,18.00
2022-10-18T12:15:37.441Z,12.00
2022-10-18T12:18:15.058Z,22.00
2022-10-18T12:20:51.453Z,8.00
2022-10-18T12:23:42.542Z,14.50
2022-10-18T12:26:11.349Z,18.00
2022-10-18T12:28:57.762Z,15.00
2022-10-18T12:31:40.861Z,11.50
2022-10-18T12:34:24.868Z,10.00
2022-10-18T12:40:14.598Z,13.00
2022-10-18T12:42:46.659Z,8.00
2022-10-18T12:45:25.298Z,11.00
2022-10-18T12:47:54.378Z,11.00
2022-10-18T12:50:25.249Z,7.00
2022-10-18T12:53:13.381Z,10.00
2022-10-18T12:58:15.853Z,10.00
2022-10-18T13:00:43.619Z,8.00
2022-10-18T13:03:16.724Z,8.00
2022-10-18T13:05:55.901Z,7.00
2022-10-18T13:08:40.753Z,9.00
2022-10-18T13:11:08.588Z,17.00
2022-10-18T13:13:40.103Z,17.33
2022-10-18T13:16:27.537Z,15.00
2022-10-18T13:18:58.476Z,16.00
2022-10-18T13:21:40.280Z,15.00
2022-10-18T13:24:18.290Z,14.00
2022-10-18T13:26:51.065Z,13.00
2022-10-18T13:29:28.459Z,16.00
2022-10-18T13:34:44.067Z,15.00
2022-10-18T13:37:11.927Z,14.50
2022-10-18T13:39:40.200Z,16.00
2022-10-18T13:42:26.597Z,17.50
2022-10-18T13:44:54.577Z,16.00
2022-10-18T13:47:42.706Z,15.00
2022-10-18T13:50:36.903Z,15.00
2022-10-18T13:53:24.888Z,18.00
2022-10-18T13:56:31.068Z,12.50
2022-10-18T13:59:15.803Z,13.00
2022-10-18T14:01:50.696Z,14.00
2022-10-18T14:04:39.554Z,15.00
2022-10-18T14:07:09.068Z,15.00
2022-10-18T14:09:54.267Z,14.50
2022-10-18T14:12:31.050Z,18.50
2022-10-18T14:15:19.145Z,15.00
2022-10-18T14:17:49.646Z,15.00
2022-10-18T14:20:29.846Z,15.00
2022-10-18T14:23:13.297Z,15.00
2022-10-18T14:25:41.091Z,15.00
2022-10-18T14:28:15.808Z,18.00
2022-10-18T14:31:03.492Z,16.00
2022-10-18T14:33:36.434Z,15.00
2022-10-18T14:36:10.263Z,13.50
2022-10-18T14:38:59.242Z,16.00
2022-10-18T14:41:28.316Z,14.00
2022-10-18T14:44:14.329Z,13.00
2022-10-18T14:46:49.775Z,17.00
2022-10-18T14:49:19.522Z,15.00
2022-10-18T14:51:50.314Z,16.00
2022-10-18T14:54:44.850Z,17.50
2022-10-18T14:57:29.923Z,14.50
2022-10-18T15:00:02.049Z,17.00
2022-10-18T15:02:32.085Z,15.00
2022-10-18T15:05:00.406Z,14.00
2022-10-18T15:07:31.432Z,18.00
2022-10-18T15:10:01.272Z,17.00
2022-10-18T15:12:36.822Z,19.50
2022-10-18T15:15:33.174Z,19.00
2022-10-18T15:18:01.853Z,22.50
2022-10-18T15:20:34.230Z,19.00
2022-10-18T15:23:20.741Z,20.00
2022-10-18T15:25:48.816Z,21.00
2022-10-18T15:28:29.764Z,17.00
2022-10-18T15:31:02.088Z,20.00
2022-10-18T15:33:36.951Z,20.00
2022-10-18T15:36:26.255Z,21.00
2022-10-18T15:38:54.425Z,21.00
2022-10-18T15:41:39.539Z,21.50
2022-10-18T15:44:13.146Z,24.00
2022-10-18T15:46:41.928Z,22.50
2022-10-18T15:49:24.839Z,23.00
2022-10-18T15:52:15.930Z,25.00
2022-10-18T15:54:43.616Z,23.00
2022-10-18T15:57:11.274Z,25.00
2022-10-18T16:00:00.581Z,24.00
2022-10-18T16:02:28.664Z,20.50
2022-10-18T16:04:58.469Z,24.00
2022-10-18T16:07:26.094Z,28.00
2022-10-18T16:09:53.720Z,27.00
2022-10-18T16:12:21.624Z,27.00
2022-10-18T16:14:49.355Z,28.00
2022-10-18T16:17:17.385Z,28.00
2022-10-18T16:19:45.140Z,26.33
2022-10-18T16:24:41.645Z,28.00
2022-10-18T16:27:10.120Z,29.00
2022-10-18T16:29:37.722Z,32.00
2022-10-18T16:32:05.416Z,28.00
2022-10-18T16:34:33.235Z,28.00
2022-10-18T16:37:01.005Z,32.00
2022-10-18T16:39:32.109Z,34.00
2022-10-18T16:41:59.986Z,36.00
2022-10-18T16:44:27.753Z,36.00
2022-10-18T16:46:56.302Z,31.50
2022-10-18T16:49:25.958Z,35.50
2022-10-18T16:51:54.192Z,28.00
2022-10-18T16:54:22.185Z,34.00
2022-10-18T16:56:50.325Z,31.00
2022-10-18T16:59:26.470Z,32.00
2022-10-18T17:01:54.265Z,34.50
2022-10-18T17:04:22.127Z,33.00
2022-10-18T17:06:49.931Z,35.50
2022-10-18T17:09:17.865Z,32.50
2022-10-18T17:11:45.659Z,35.00
2022-10-18T17:14:13.525Z,34.33
2022-10-18T17:16:43.602Z,35.00
2022-10-18T17:19:13.456Z,36.00
2022-10-18T17:21:41.281Z,33.00
2022-10-18T17:24:09.496Z,35.00
2022-10-18T17:26:37.235Z,29.50
2022-10-18T17:29:06.726Z,34.33
2022-10-18T17:31:35.818Z,33.00
2022-10-18T17:34:03.946Z,31.67
2022-10-18T17:36:32.435Z,33.33
2022-10-18T17:39:00.366Z,35.33
2022-10-18T17:41:28.171Z,38.00
2022-10-18T17:43:55.826Z,38.00
2022-10-18T17:46:23.981Z,39.50
2022-10-18T17:48:51.846Z,43.00
2022-10-18T17:51:19.488Z,42.00
2022-10-18T17:53:47.275Z,39.67
2022-10-18T17:56:15.552Z,48.00
2022-10-18T17:58:43.833Z,43.00
2022-10-18T18:01:15.783Z,45.00
2022-10-18T18:03:44.105Z,42.50
2022-10-18T18:06:22.789Z,39.00
2022-10-18T18:08:50.729Z,40.00
2022-10-18T18:11:18.804Z,41.00
2022-10-18T18:13:46.618Z,35.00
2022-10-18T18:16:19.446Z,35.00
2022-10-18T18:18:48.778Z,39.00
2022-10-18T18:21:16.648Z,36.00
2022-10-18T18:23:44.723Z,37.00
2022-10-18T18:26:15.074Z,39.00
2022-10-18T18:28:43.022Z,35.00
2022-10-18T18:31:14.214Z,41.00
2022-10-18T18:33:42.350Z,34.67
2022-10-18T18:36:10.812Z,41.00
2022-10-18T18:38:39.255Z,36.00
2022-10-18T18:41:08.418Z,39.00
2022-10-18T18:43:36.917Z,37.00
2022-10-18T18:46:04.937Z,39.50
2022-10-18T18:48:33.670Z,32.00
2022-10-18T18:51:05.913Z,36.00
2022-10-18T18:53:33.965Z,36.00
2022-10-18T18:56:02.829Z,38.00
2022-10-18T18:58:31.132Z,35.00
2022-10-18T19:00:59.043Z,38.00
2022-10-18T19:03:26.971Z,36.00
2022-10-18T19:06:02.125Z,40.33
2022-10-18T19:08:29.824Z,39.00
2022-10-18T19:10:57.544Z,37.00
2022-10-18T19:13:25.400Z,40.00
2022-10-18T19:16:06.494Z,40.00
2022-10-18T19:18:35.441Z,37.00
2022-10-18T19:21:04.363Z,38.67
2022-10-18T19:23:32.744Z,37.67
2022-10-18T19:26:12.828Z,39.00
2022-10-18T19:28:43.474Z,41.00
2022-10-18T19:31:11.395Z,43.50
2022-10-18T19:33:48.411Z,44.00
2022-10-18T19:36:23.716Z,38.00
2022-10-18T19:38:51.570Z,42.50
2022-10-18T19:41:19.510Z,42.00
2022-10-18T19:43:47.421Z,40.00
2022-10-18T19:46:15.185Z,37.00
2022-10-18T19:48:49.722Z,38.00
2022-10-18T19:51:21.015Z,38.00
2022-10-18T19:53:53.246Z,35.33
2022-10-18T19:56:23.972Z,39.50
2022-10-18T19:58:52.277Z,40.00
2022-10-18T20:01:21.798Z,37.00
2022-10-18T20:03:49.920Z,36.00
2022-10-18T20:06:18.274Z,38.50
2022-10-18T20:11:16.700Z,37.00
2022-10-18T20:13:45.699Z,42.00
2022-10-18T20:16:14.899Z,40.00
2022-10-18T20:18:45.830Z,38.50
2022-10-18T20:21:15.151Z,37.50
2022-10-18T20:23:43.871Z,41.50
2022-10-18T20:26:20.418Z,36.33
2022-10-18T20:28:56.083Z,38.00
2022-10-18T20:31:25.747Z,37.50
2022-10-18T20:33:57.841Z,41.00
2022-10-18T20:36:26.426Z,40.00
2022-10-18T20:38:55.155Z,40.00
2022-10-18T20:41:25.098Z,38.00
2022-10-18T20:43:57.465Z,37.00
2022-10-18T20:46:25.746Z,38.33
2022-10-18T20:48:54.143Z,43.00
2022-10-18T20:51:22.526Z,41.33
2022-10-18T20:53:50.829Z,38.00
2022-10-18T20:56:22.953Z,39.00
2022-10-18T20:58:51.405Z,32.00
2022-10-18T21:01:27.345Z,35.00
2022-10-18T21:03:56.694Z,40.00
2022-10-18T21:06:25.577Z,39.00
2022-10-18T21:08:54.404Z,34.33
2022-10-18T21:11:22.847Z,41.33
2022-10-18T21:13:54.642Z,37.33
2022-10-18T21:16:22.673Z,44.33
2022-10-18T21:18:50.548Z,37.50
2022-10-18T21:21:19.700Z,41.00
2022-10-18T21:23:47.716Z,43.67
2022-10-18T21:26:19.689Z,37.00
2022-10-18T21:28:47.518Z,40.33
2022-10-18T21:31:17.384Z,38.00
2022-10-18T21:33:45.816Z,36.00
2022-10-18T21:36:14.416Z,30.00
2022-10-18T21:38:44.630Z,33.00
2022-10-18T21:41:13.527Z,33.50
2022-10-18T21:43:42.680Z,33.50
2022-10-18T21:46:11.098Z,28.33
2022-10-18T21:48:39.364Z,32.00
2022-10-18T21:51:07.763Z,34.00
2022-10-18T21:53:36.021Z,34.50
2022-10-18T21:56:05.148Z,40.00
2022-10-18T21:58:33.031Z,35.50
2022-10-18T22:01:01.045Z,36.50
2022-10-18T22:03:28.814Z,31.50
2022-10-18T22:06:03.845Z,38.00
2022-10-18T22:08:32.044Z,38.00
2022-10-18T22:11:00.370Z,30.00
2022-10-18T22:13:28.654Z,34.00
2022-10-18T22:15:56.664Z,33.33
2022-10-18T22:18:24.308Z,38.33
2022-10-18T22:20:59.830Z,37.00
2022-10-18T22:23:31.428Z,31.50
2022-10-18T22:26:03.881Z,35.00
2022-10-18T22:28:31.679Z,35.00
2022-10-18T22:30:59.534Z,37.00
2022-10-18T22:33:27.195Z,38.00
2022-10-18T22:35:55.065Z,31.50
2022-10-18T22:38:22.811Z,33.00
2022-10-18T22:40:50.668Z,30.00
2022-10-18T22:43:18.332Z,33.50
2022-10-18T22:45:46.021Z,27.50
2022-10-18T22:48:13.785Z,30.00
2022-10-18T22:50:41.549Z,28.00
2022-10-18T22:53:09.201Z,31.00
2022-10-18T22:55:36.976Z,27.00
2022-10-18T22:58:04.696Z,33.00
2022-10-18T23:00:32.443Z,30.50
2022-10-18T23:03:00.215Z,33.00
2022-10-18T23:05:27.854Z,31.00
2022-10-18T23:07:55.607Z,25.50
2022-10-18T23:10:23.360Z,26.00
2022-10-18T23:12:50.970Z,28.00
2022-10-18T23:15:18.786Z,28.00
2022-10-18T23:17:46.933Z,34.00
2022-10-18T23:20:15.049Z,33.00
2022-10-18T23:22:42.902Z,32.00
2022-10-18T23:25:10.617Z,34.00
2022-10-18T23:27:38.349Z,31.00
2022-10-18T23:30:06.636Z,33.00
2022-10-18T23:32:35.296Z,34.50
2022-10-18T23:35:03.520Z,33.50
2022-10-18T23:37:31.724Z,32.50
2022-10-18T23:39:59.714Z,34.00
2022-10-18T23:42:27.991Z,30.00
2022-10-18T23:44:55.746Z,29.00
2022-10-18T23:47:23.624Z,31.00
2022-10-18T23:49:51.484Z,32.00
2022-10-18T23:52:19.077Z,32.67
2022-10-18T23:54:47.126Z,29.00
2022-10-18T23:57:14.986Z,28.00
2022-10-18T23:59:42.852Z,31.00
